Time;durP1;ratioP1;P1;durP2;ratioP2;P2;SDS_P1;SDS_P2;PMS_P1;PMS_P2;Temp;Humidity;BMP_temperature;BMP_pressure;BME280_temperature;BME280_humidity;BME280_pressure;Samples;Min_cycle;Max_cycle;Signal;HPM_P1;HPM_P2
2022/08/02 00:00:32;;;;;;;;;1.00;1.00;;;;;17.90;55.77;101878.06;4991960;28;8838;-67
2022/08/02 00:02:58;;;;;;;;;1.00;1.00;;;;;17.87;55.57;101887.50;4989921;28;8909;-67
2022/08/02 00:05:25;;;;;;;;;2.00;0.50;;;;;17.85;55.81;101886.06;4998810;28;8855;-67
2022/08/02 00:07:51;;;;;;;;;2.00;2.00;;;;;17.84;55.92;101874.31;4993089;28;8945;-67
2022/08/02 00:10:18;;;;;;;;;2.00;2.00;;;;;17.83;55.87;101880.00;4986530;28;8858;-67
2022/08/02 00:12:44;;;;;;;;;0.75;0.75;;;;;17.83;56.02;101874.56;5001350;28;8847;-67
2022/08/02 00:15:11;;;;;;;;;1.00;1.00;;;;;17.80;56.06;101864.91;4996794;28;8825;-66
2022/08/02 00:17:42;;;;;;;;;1.25;1.00;;;;;17.77;56.12;101854.44;4993477;28;8823;-66
2022/08/02 00:20:10;;;;;;;;;1.75;1.00;;;;;17.74;56.23;101855.75;4992489;28;8824;-66
2022/08/02 00:22:37;;;;;;;;;1.50;1.00;;;;;17.71;56.27;101849.84;4996828;28;8811;-66
2022/08/02 00:25:04;;;;;;;;;1.00;1.00;;;;;17.70;55.98;101850.88;4993794;28;8851;-66
2022/08/02 00:27:30;;;;;;;;;1.00;1.00;;;;;17.66;56.46;101855.97;4952409;28;8841;-67
2022/08/02 00:29:57;;;;;;;;;1.50;1.50;;;;;17.65;56.27;101853.44;4984956;28;8861;-66
2022/08/02 00:32:23;;;;;;;;;2.00;0.50;;;;;17.65;56.10;101850.72;5002469;28;8878;-65
2022/08/02 00:34:51;;;;;;;;;1.00;0.75;;;;;17.63;56.49;101845.50;4997607;28;8835;-65
2022/08/02 00:37:17;;;;;;;;;2.00;0.00;;;;;17.61;56.25;101853.03;4964574;28;8829;-66
2022/08/02 00:39:44;;;;;;;;;1.00;1.00;;;;;17.65;56.30;101856.97;4985417;28;8846;-66
2022/08/02 00:42:13;;;;;;;;;0.00;0.00;;;;;17.62;55.85;101859.28;5000289;28;8824;-64
2022/08/02 00:44:40;;;;;;;;;1.00;1.00;;;;;17.61;56.30;101850.31;5002404;28;8844;-65
2022/08/02 00:47:07;;;;;;;;;2.00;2.00;;;;;17.64;55.96;101849.03;4994004;28;8826;-66
2022/08/02 00:49:33;;;;;;;;;1.00;1.00;;;;;17.65;56.15;101847.97;4991659;28;8843;-66
2022/08/02 00:52:00;;;;;;;;;1.75;1.00;;;;;17.68;56.20;101844.84;5006500;28;8806;-66
2022/08/02 00:54:26;;;;;;;;;1.00;1.00;;;;;17.67;56.18;101844.00;4994958;28;8967;-65
2022/08/02 00:56:53;;;;;;;;;1.00;1.00;;;;;17.67;56.06;101838.56;4982471;28;8829;-66
2022/08/02 00:59:19;;;;;;;;;2.00;0.00;;;;;17.68;56.03;101848.38;4980090;28;8907;-66
2022/08/02 01:01:46;;;;;;;;;1.00;1.00;;;;;17.67;56.14;101835.84;4976869;28;8837;-67
2022/08/02 01:04:25;;;;;;;;;2.50;1.00;;;;;17.65;56.03;101840.66;4991502;28;8818;-67
2022/08/02 01:06:59;;;;;;;;;1.00;1.00;;;;;17.61;56.20;101835.84;5011069;28;8931;-67
2022/08/02 01:09:26;;;;;;;;;2.50;2.00;;;;;17.58;56.32;101836.28;4992436;28;8811;-67
2022/08/02 01:11:52;;;;;;;;;1.00;1.00;;;;;17.57;56.70;101835.44;4990582;28;9522;-66
2022/08/02 01:14:21;;;;;;;;;1.00;1.00;;;;;17.50;56.65;101835.50;4988348;28;8909;-66
2022/08/02 01:17:13;;;;;;;;;1.50;1.50;;;;;17.50;56.90;101830.06;5004535;28;8833;-66
2022/08/02 01:19:53;;;;;;;;;3.33;1.67;;;;;17.49;56.96;101828.34;4991747;28;8912;-67
2022/08/02 01:22:31;;;;;;;;;2.50;1.00;;;;;17.52;57.18;101829.81;5012178;28;8812;-66
2022/08/02 01:25:28;;;;;;;;;2.00;1.00;;;;;17.52;57.16;101827.09;4979954;28;8865;-66
2022/08/02 01:28:35;;;;;;;;;2.00;2.00;;;;;17.51;57.13;101817.28;4990161;28;8988;-66
2022/08/02 01:31:20;;;;;;;;;1.00;1.00;;;;;17.51;57.45;101820.81;4983213;28;8833;-66
2022/08/02 01:33:55;;;;;;;;;1.00;1.00;;;;;17.51;57.61;101818.09;4998680;28;8967;-66
2022/08/02 01:36:26;;;;;;;;;0.25;0.00;;;;;17.48;57.79;101815.81;4992659;28;8889;-67
2022/08/02 01:38:54;;;;;;;;;1.25;1.25;;;;;17.47;57.65;101814.16;4991167;28;8819;-66
2022/08/02 01:41:26;;;;;;;;;1.00;1.00;;;;;17.46;57.61;101817.06;4990855;28;8823;-65
2022/08/02 01:43:57;;;;;;;;;1.00;1.00;;;;;17.38;58.16;101820.03;4991427;28;8859;-65
2022/08/02 01:46:26;;;;;;;;;2.00;1.25;;;;;17.39;58.17;101821.72;4990989;28;9899;-64
2022/08/02 01:48:56;;;;;;;;;2.25;1.00;;;;;17.40;58.21;101818.78;4984771;28;8926;-65
2022/08/02 01:54:16;;;;;;;;;1.00;1.00;;;;;17.43;58.35;101810.19;4997426;28;9015;-65
2022/08/02 01:56:44;;;;;;;;;1.75;1.50;;;;;17.47;58.34;101810.59;4989951;28;8823;-65
2022/08/02 01:59:15;;;;;;;;;1.75;1.50;;;;;17.47;58.47;101805.97;4988868;28;8835;-65
2022/08/02 02:01:42;;;;;;;;;1.00;0.75;;;;;17.47;58.63;101805.16;4980154;28;8839;-67
2022/08/02 02:04:13;;;;;;;;;1.75;1.00;;;;;17.47;58.34;101805.97;4996668;28;8819;-65
2022/08/02 02:06:42;;;;;;;;;2.00;1.00;;;;;17.47;58.48;101802.44;4986715;28;8927;-67
2022/08/02 02:09:11;;;;;;;;;1.50;0.75;;;;;17.46;58.51;101798.00;4989583;28;8840;-66
2022/08/02 02:11:40;;;;;;;;;2.00;1.50;;;;;17.44;58.61;101800.13;4997479;28;8836;-64
2022/08/02 02:14:29;;;;;;;;;2.00;0.75;;;;;17.42;58.70;101789.47;4988231;28;8955;-66
2022/08/02 02:16:57;;;;;;;;;1.00;1.00;;;;;17.38;58.80;101788.22;4980564;28;8869;-66
2022/08/02 02:19:26;;;;;;;;;1.00;1.00;;;;;17.35;58.98;101783.22;4993179;28;8862;-66
2022/08/02 02:21:53;;;;;;;;;1.00;1.00;;;;;17.34;59.25;101780.69;4979232;28;8967;-65
2022/08/02 02:24:20;;;;;;;;;1.25;0.25;;;;;17.35;58.99;101793.25;4984466;28;9581;-66
2022/08/02 02:26:49;;;;;;;;;0.50;0.50;;;;;17.36;59.10;101784.03;4975374;28;8833;-66
2022/08/02 02:29:20;;;;;;;;;1.50;1.50;;;;;17.38;58.69;101787.38;4987345;28;8831;-66
2022/08/02 02:31:51;;;;;;;;;2.00;2.00;;;;;17.34;58.65;101788.84;4988025;28;8905;-65
2022/08/02 02:34:26;;;;;;;;;1.00;1.00;;;;;17.29;58.60;101786.78;4996501;28;9561;-67
2022/08/02 02:36:55;;;;;;;;;1.25;1.25;;;;;17.28;58.69;101794.13;4971178;28;9639;-66
2022/08/02 02:39:23;;;;;;;;;2.50;0.25;;;;;17.25;58.36;101790.97;4980803;28;8846;-66
2022/08/02 02:41:52;;;;;;;;;1.75;1.00;;;;;17.27;58.15;101786.19;5002555;28;8847;-65
2022/08/02 02:44:20;;;;;;;;;1.75;1.75;;;;;17.26;58.38;101787.25;4990854;28;8950;-66
2022/08/02 02:46:49;;;;;;;;;1.00;1.00;;;;;17.23;58.24;101783.06;4992777;28;8899;-66
2022/08/02 02:49:18;;;;;;;;;1.25;1.00;;;;;17.23;57.88;101777.59;4991682;28;8835;-66
2022/08/02 02:51:46;;;;;;;;;1.25;1.00;;;;;17.24;57.90;101771.09;4965923;28;8925;-65
2022/08/02 02:54:15;;;;;;;;;1.25;1.25;;;;;17.25;57.77;101769.22;4991192;28;8852;-66
2022/08/02 02:57:01;;;;;;;;;1.00;1.00;;;;;17.26;57.67;101768.19;4990215;28;9582;-65
2022/08/02 02:59:28;;;;;;;;;0.75;0.25;;;;;17.22;57.68;101772.38;4985145;28;9587;-66
2022/08/02 03:01:55;;;;;;;;;1.00;1.00;;;;;17.18;57.83;101763.81;4990081;28;8963;-67
2022/08/02 03:04:25;;;;;;;;;2.00;1.50;;;;;17.16;57.72;101760.47;5003593;28;8913;-66
2022/08/02 03:06:52;;;;;;;;;2.00;1.25;;;;;17.18;57.93;101761.09;5000927;28;9621;-66
2022/08/02 03:09:19;;;;;;;;;2.00;2.00;;;;;17.22;57.92;101761.50;4974918;28;8835;-66
2022/08/02 03:11:47;;;;;;;;;1.75;0.50;;;;;17.23;57.62;101755.00;4985362;28;8851;-66
2022/08/02 03:14:14;;;;;;;;;3.00;3.00;;;;;17.21;57.64;101760.66;4984848;28;8862;-66
2022/08/02 03:16:45;;;;;;;;;1.67;1.00;;;;;17.22;57.71;101756.06;4967549;28;8951;-65
2022/08/02 03:19:12;;;;;;;;;2.75;1.00;;;;;17.18;57.83;101758.38;4992873;28;8915;-66
2022/08/02 03:21:38;;;;;;;;;1.00;1.00;;;;;17.19;58.01;101746.44;4975182;28;8829;-64
2022/08/02 03:24:06;;;;;;;;;0.50;0.50;;;;;17.19;58.09;101743.72;4999868;28;8941;-68
2022/08/02 03:26:32;;;;;;;;;2.00;2.00;;;;;17.17;58.25;101739.53;5014393;28;8817;-65
2022/08/02 03:28:59;;;;;;;;;2.00;2.00;;;;;17.16;58.36;101746.03;5012028;28;9162;-65
2022/08/02 03:31:35;;;;;;;;;2.00;2.00;;;;;17.17;58.33;101739.53;4991410;28;8842;-65
2022/08/02 03:34:03;;;;;;;;;3.00;1.67;;;;;17.14;58.36;101740.81;4996034;28;8852;-66
2022/08/02 03:36:31;;;;;;;;;1.00;1.00;;;;;17.13;58.08;101736.41;4982675;28;9031;-65
2022/08/02 03:39:00;;;;;;;;;1.75;1.00;;;;;17.13;58.45;101741.84;4974455;28;8825;-66
2022/08/02 03:41:28;;;;;;;;;1.00;1.00;;;;;17.14;58.27;101742.72;4991968;28;8917;-66
2022/08/02 03:43:55;;;;;;;;;1.00;1.00;;;;;17.18;58.52;101738.50;4986141;28;8940;-64
2022/08/02 03:46:24;;;;;;;;;1.00;1.00;;;;;17.19;58.30;101749.16;5001681;28;8934;-66
2022/08/02 03:48:53;;;;;;;;;0.33;0.33;;;;;17.22;58.16;101747.91;5002343;28;8822;-67
2022/08/02 03:51:20;;;;;;;;;1.00;1.00;;;;;17.21;58.34;101744.31;4993925;28;8931;-67
2022/08/02 03:53:47;;;;;;;;;3.00;2.00;;;;;17.22;58.65;101739.75;5008915;28;8916;-67
2022/08/02 03:56:15;;;;;;;;;1.00;1.00;;;;;17.21;58.35;101736.16;4993679;28;9082;-67
2022/08/02 03:58:42;;;;;;;;;1.67;1.00;;;;;17.17;58.98;101732.19;4995977;28;8920;-68
2022/08/02 04:01:15;;;;;;;;;0.00;0.00;;;;;17.15;58.89;101723.44;4993532;28;8921;-67
2022/08/02 04:03:41;;;;;;;;;0.75;0.50;;;;;17.14;58.91;101727.22;5000729;28;8821;-67
2022/08/02 04:06:08;;;;;;;;;0.00;0.00;;;;;17.14;58.94;101721.78;5006120;28;8821;-68
2022/08/02 04:08:34;;;;;;;;;1.75;1.50;;;;;17.14;58.98;101726.38;4982362;28;9054;-66
2022/08/02 04:13:49;;;;;;;;;1.00;1.00;;;;;17.12;59.37;101714.88;4999660;28;8933;-68
2022/08/02 04:16:21;;;;;;;;;1.00;1.00;;;;;17.10;59.22;101720.53;4995219;28;8849;-66
2022/08/02 04:18:54;;;;;;;;;0.75;0.75;;;;;17.09;59.19;101718.00;4999894;28;8905;-66
2022/08/02 04:21:24;;;;;;;;;1.00;1.00;;;;;17.05;59.35;101710.31;4988529;28;8908;-67
2022/08/02 04:23:52;;;;;;;;;3.00;1.25;;;;;17.03;58.92;101700.69;4991790;28;8893;-67
2022/08/02 04:26:20;;;;;;;;;2.33;1.00;;;;;17.04;59.45;101705.06;4991445;28;8962;-67
2022/08/02 04:28:54;;;;;;;;;1.00;1.00;;;;;17.04;59.38;101699.63;4997548;28;8920;-65
2022/08/02 04:31:21;;;;;;;;;1.00;1.00;;;;;17.02;59.08;101696.31;4974615;28;9048;-65
2022/08/02 04:33:48;;;;;;;;;2.00;2.00;;;;;17.01;59.02;101705.47;4996731;28;8941;-65
2022/08/02 04:36:15;;;;;;;;;1.00;1.00;;;;;17.02;58.91;101709.91;5005180;28;8914;-65
2022/08/02 04:38:57;;;;;;;;;2.00;2.00;;;;;17.01;59.05;101713.66;4974398;28;8848;-66
2022/08/02 04:41:35;;;;;;;;;1.00;1.00;;;;;17.02;59.18;101708.00;4974492;28;8824;-65
2022/08/02 04:44:06;;;;;;;;;1.00;1.00;;;;;17.03;59.08;101708.84;4973085;28;8855;-66
2022/08/02 04:46:34;;;;;;;;;0.75;0.75;;;;;17.06;58.83;101702.97;5050310;23;8897;-65
2022/08/02 04:49:01;;;;;;;;;2.00;2.00;;;;;17.07;58.98;101699.19;5048964;28;8954;-66
2022/08/02 04:51:34;;;;;;;;;1.33;1.33;;;;;17.07;58.95;101691.03;5052466;28;8912;-66
2022/08/02 04:54:05;;;;;;;;;1.00;1.00;;;;;17.08;58.55;101683.72;5052585;28;8969;-65
2022/08/02 04:56:39;;;;;;;;;1.50;0.25;;;;;17.12;59.02;101696.66;5052497;28;9581;-66
2022/08/02 04:59:05;;;;;;;;;1.00;1.00;;;;;17.14;58.75;101691.00;5059513;28;9749;-66
2022/08/02 05:01:34;;;;;;;;;1.75;1.25;;;;;17.14;58.64;101686.41;5038642;28;8935;-66
2022/08/02 05:04:00;;;;;;;;;1.00;1.00;;;;;17.16;58.86;101691.63;5033112;28;8818;-66
2022/08/02 05:06:27;;;;;;;;;0.25;0.25;;;;;17.20;58.88;101693.69;5032441;28;8845;-66
2022/08/02 05:08:53;;;;;;;;;1.00;1.00;;;;;17.23;58.54;101689.69;5032092;28;8927;-66
2022/08/02 05:11:23;;;;;;;;;1.00;1.00;;;;;17.26;58.78;101703.72;5033899;28;8837;-65
2022/08/02 05:14:02;;;;;;;;;1.00;0.75;;;;;17.27;58.76;101702.66;5032538;28;8852;-65
2022/08/02 05:16:28;;;;;;;;;0.75;0.75;;;;;17.26;58.72;101711.88;5033154;28;8960;-66
2022/08/02 05:18:57;;;;;;;;;1.00;0.75;;;;;17.29;58.76;101719.56;5031162;28;8856;-66
2022/08/02 05:21:23;;;;;;;;;2.00;1.00;;;;;17.33;58.85;101716.44;5042379;28;8916;-66
2022/08/02 05:23:50;;;;;;;;;0.75;0.75;;;;;17.36;58.55;101716.00;5031916;28;8866;-66
2022/08/02 05:26:16;;;;;;;;;1.00;1.00;;;;;17.39;58.46;101715.56;5047327;28;9004;-66
2022/08/02 05:28:42;;;;;;;;;1.25;1.00;;;;;17.39;58.76;101719.13;5031473;28;9007;-66
2022/08/02 05:31:09;;;;;;;;;2.50;1.00;;;;;17.44;58.51;101721.19;5031817;28;9575;-66
2022/08/02 05:33:39;;;;;;;;;2.50;1.25;;;;;17.45;58.35;101718.25;5031945;28;8856;-66
2022/08/02 05:36:08;;;;;;;;;2.75;2.00;;;;;17.45;58.29;101718.25;5031386;28;8850;-65
2022/08/02 05:38:34;;;;;;;;;3.00;2.00;;;;;17.47;58.19;101713.44;5031596;28;8834;-65
2022/08/02 05:41:03;;;;;;;;;1.50;1.50;;;;;17.51;57.95;101719.28;5032074;28;9556;-66
2022/08/02 05:43:29;;;;;;;;;4.75;2.25;;;;;17.54;58.03;101718.81;5031855;28;8846;-65
2022/08/02 05:45:56;;;;;;;;;3.00;1.00;;;;;17.56;57.77;101697.66;5021874;28;9558;-65
2022/08/02 05:48:23;;;;;;;;;1.00;1.00;;;;;17.56;58.12;101697.66;5040978;28;8949;-65
2022/08/02 05:51:02;;;;;;;;;1.00;1.00;;;;;17.59;57.50;101713.56;5048476;28;8841;-65
2022/08/02 05:53:48;;;;;;;;;1.50;1.50;;;;;17.61;57.92;101699.72;5042947;28;8822;-65
2022/08/02 05:56:23;;;;;;;;;1.50;1.50;;;;;17.63;57.66;101695.72;5028106;28;8975;-65
2022/08/02 05:59:19;;;;;;;;;1.00;1.00;;;;;17.68;57.81;101701.34;5022715;28;9537;-65
2022/08/02 06:01:47;;;;;;;;;1.50;1.50;;;;;17.73;57.74;101717.84;5004006;28;9606;-66
2022/08/02 06:04:23;;;;;;;;;1.50;1.50;;;;;17.82;57.84;101718.44;5028335;28;8838;-66
2022/08/02 06:06:54;;;;;;;;;0.75;0.75;;;;;17.92;58.04;101698.91;5029720;28;8952;-65
2022/08/02 06:09:21;;;;;;;;;1.00;1.00;;;;;17.96;57.96;101694.69;5029415;28;8842;-65
2022/08/02 06:11:55;;;;;;;;;2.50;1.25;;;;;18.03;58.25;101704.47;5028537;28;8873;-66
2022/08/02 06:14:31;;;;;;;;;3.75;3.00;;;;;18.08;57.86;101706.50;5030617;28;9691;-66
2022/08/02 06:17:02;;;;;;;;;2.50;2.50;;;;;18.13;57.36;101694.94;5029406;28;8858;-66
2022/08/02 06:19:30;;;;;;;;;1.00;1.00;;;;;18.24;57.42;101692.31;5031282;28;8948;-66
2022/08/02 06:22:15;;;;;;;;;2.00;2.00;;;;;18.36;57.41;101681.50;5030712;28;8876;-66
2022/08/02 06:25:03;;;;;;;;;1.50;1.50;;;;;18.46;56.73;101675.53;5045624;28;8977;-66
2022/08/02 06:27:30;;;;;;;;;1.50;1.50;;;;;18.52;56.96;101670.00;5029036;28;8830;-66
2022/08/02 06:29:57;;;;;;;;;2.25;2.25;;;;;18.59;56.67;101669.09;5039726;28;8824;-66
2022/08/02 06:32:26;;;;;;;;;2.25;2.00;;;;;18.60;56.85;101652.53;5040938;28;8911;-66
2022/08/02 06:34:52;;;;;;;;;2.75;2.00;;;;;18.64;56.71;101661.09;5030576;28;8877;-66
2022/08/02 06:37:46;;;;;;;;;3.00;3.00;;;;;18.70;57.25;101663.75;5028978;28;8838;-66
2022/08/02 06:40:16;;;;;;;;;2.50;2.50;;;;;18.74;57.51;101675.03;5030668;28;10649;-66
2022/08/02 06:42:56;;;;;;;;;3.00;3.00;;;;;18.76;57.42;101675.66;5026669;28;8861;-66
2022/08/02 06:45:22;;;;;;;;;5.00;5.00;;;;;18.73;57.18;101676.09;5028758;28;9683;-65
2022/08/02 06:47:49;;;;;;;;;4.00;4.00;;;;;18.72;57.22;101674.44;5028251;28;8850;-65
2022/08/02 06:50:15;;;;;;;;;5.75;4.50;;;;;18.75;57.58;101672.06;5029586;28;8863;-66
2022/08/02 06:52:42;;;;;;;;;3.50;3.50;;;;;18.77;57.58;101678.13;5027888;28;8861;-66
2022/08/02 06:55:09;;;;;;;;;4.00;4.00;;;;;18.82;57.90;101672.00;5029474;28;8960;-65
2022/08/02 06:57:35;;;;;;;;;3.50;3.50;;;;;18.86;57.73;101673.22;5029968;28;9500;-67
2022/08/02 07:00:08;;;;;;;;;4.25;3.25;;;;;18.88;58.08;101665.63;5030931;28;8850;-66
2022/08/02 07:02:35;;;;;;;;;7.50;6.00;;;;;18.83;58.19;101670.94;5030585;28;8830;-65
2022/08/02 07:05:03;;;;;;;;;10.00;7.75;;;;;18.79;58.16;101653.34;5030294;28;8850;-65
2022/08/02 07:07:30;;;;;;;;;5.50;5.50;;;;;18.85;58.37;101657.06;5028922;28;8946;-66
2022/08/02 07:09:57;;;;;;;;;4.50;4.00;;;;;18.93;58.67;101654.03;5033825;28;8835;-66
2022/08/02 07:12:32;;;;;;;;;12.00;9.75;;;;;18.93;58.39;101660.31;5029618;28;8883;-65
2022/08/02 07:15:00;;;;;;;;;5.50;5.50;;;;;18.99;58.56;101653.09;5028419;28;8985;-65
2022/08/02 07:17:28;;;;;;;;;8.75;8.75;;;;;18.96;58.83;101659.03;5030498;28;8837;-66
2022/08/02 07:19:55;;;;;;;;;6.75;6.75;;;;;18.93;58.94;101657.59;5030724;28;8825;-65
2022/08/02 07:22:23;;;;;;;;;10.00;7.50;;;;;18.95;59.05;101658.19;5030022;28;8814;-66
2022/08/02 07:24:50;;;;;;;;;8.75;8.25;;;;;18.91;59.16;101650.69;5028251;28;8928;-66
2022/08/02 07:27:16;;;;;;;;;8.50;7.00;;;;;18.94;59.18;101645.59;5028206;28;8842;-66
2022/08/02 07:29:43;;;;;;;;;9.25;9.00;;;;;19.00;59.60;101641.97;5012931;28;8837;-63
2022/08/02 07:32:21;;;;;;;;;12.50;12.00;;;;;19.03;59.79;101648.84;5024623;28;9545;-65
2022/08/02 07:34:48;;;;;;;;;6.75;6.75;;;;;19.08;59.83;101649.00;5026975;28;8897;-65
2022/08/02 07:37:20;;;;;;;;;8.00;6.25;;;;;19.17;60.01;101653.06;5029257;28;8842;-65
2022/08/02 07:40:07;;;;;;;;;8.50;8.25;;;;;19.20;60.42;101641.69;5028478;28;8872;-64
2022/08/02 07:42:43;;;;;;;;;7.25;7.25;;;;;19.26;60.55;101635.28;5028294;28;8838;-66
2022/08/02 07:45:12;;;;;;;;;7.50;6.50;;;;;19.35;60.87;101635.78;5027732;28;8854;-65
2022/08/02 07:47:43;;;;;;;;;7.75;7.25;;;;;19.40;60.81;101635.09;5027522;28;8903;-65
2022/08/02 07:50:11;;;;;;;;;6.25;6.25;;;;;19.45;61.33;101638.81;5026104;28;8838;-66
2022/08/02 07:52:39;;;;;;;;;8.75;8.75;;;;;19.50;61.41;101638.09;5028714;28;8959;-67
2022/08/02 07:55:06;;;;;;;;;13.25;13.00;;;;;19.56;61.46;101641.78;5027767;28;8970;-65
2022/08/02 07:57:33;;;;;;;;;9.50;9.50;;;;;19.62;61.93;101632.69;5027747;28;8861;-64
2022/08/02 07:59:59;;;;;;;;;10.25;9.50;;;;;19.69;61.54;101636.16;5028501;28;8944;-66
2022/08/02 08:02:26;;;;;;;;;8.75;7.75;;;;;19.71;61.78;101637.56;5029054;28;8867;-66
2022/08/02 08:04:52;;;;;;;;;17.00;15.00;;;;;19.65;62.24;101634.97;5028744;28;8907;-66
2022/08/02 08:07:19;;;;;;;;;9.50;9.50;;;;;19.65;62.17;101624.03;5044103;28;8862;-66
2022/08/02 08:09:46;;;;;;;;;7.00;7.00;;;;;19.71;62.11;101621.16;5030295;28;8833;-66
2022/08/02 08:12:15;;;;;;;;;8.25;7.75;;;;;19.76;62.30;101620.47;5032917;28;8854;-66
2022/08/02 08:14:42;;;;;;;;;9.50;8.00;;;;;19.85;62.38;101629.13;5034062;28;8945;-66
2022/08/02 08:17:09;;;;;;;;;11.75;10.00;;;;;19.90;62.72;101618.34;5045362;28;8865;-66
2022/08/02 08:19:36;;;;;;;;;9.25;9.25;;;;;19.95;62.61;101615.72;5034416;28;8960;-66
2022/08/02 08:22:18;;;;;;;;;10.25;10.25;;;;;20.00;62.46;101602.16;5028704;28;8822;-67
2022/08/02 08:24:45;;;;;;;;;9.25;9.25;;;;;20.08;62.19;101606.44;5033508;28;8826;-67
2022/08/02 08:27:14;;;;;;;;;10.25;10.25;;;;;20.10;62.17;101618.81;5030726;28;8814;-67
2022/08/02 08:29:41;;;;;;;;;11.00;7.50;;;;;20.24;62.27;101622.94;5031798;28;8861;-66
2022/08/02 08:32:08;;;;;;;;;16.00;15.00;;;;;20.24;62.04;101630.31;5030940;28;8861;-65
2022/08/02 08:34:42;;;;;;;;;13.50;11.50;;;;;20.27;61.87;101629.84;5030761;28;8884;-66
2022/08/02 08:37:08;;;;;;;;;9.75;9.00;;;;;20.32;61.52;101629.13;5031493;28;8887;-66
2022/08/02 08:39:42;;;;;;;;;8.00;8.00;;;;;20.34;61.72;101627.81;5037459;28;8827;-67
2022/08/02 08:42:27;;;;;;;;;11.50;9.00;;;;;20.33;61.74;101615.19;5030585;28;8877;-67
2022/08/02 08:44:55;;;;;;;;;11.75;11.25;;;;;20.37;61.89;101615.56;5031527;28;8838;-65
2022/08/02 08:47:27;;;;;;;;;6.00;6.00;;;;;20.43;61.90;101631.00;5022743;28;8830;-66
2022/08/02 08:50:04;;;;;;;;;8.00;7.25;;;;;20.52;61.98;101626.03;5029268;28;9526;-66
2022/08/02 08:52:40;;;;;;;;;10.75;9.50;;;;;20.58;62.10;101628.63;5043538;28;8850;-66
2022/08/02 08:55:10;;;;;;;;;8.25;8.00;;;;;20.67;62.11;101631.81;5029665;28;8860;-68
2022/08/02 08:57:41;;;;;;;;;9.75;8.25;;;;;20.75;62.00;101639.66;5030106;28;9589;-66
2022/08/02 09:00:14;;;;;;;;;10.75;9.00;;;;;20.81;61.86;101633.19;5032707;28;8901;-66
2022/08/02 09:02:42;;;;;;;;;15.50;12.00;;;;;20.88;61.82;101633.88;5029985;28;8979;-66
2022/08/02 09:05:12;;;;;;;;;12.25;12.00;;;;;20.91;62.11;101636.16;5047156;28;8858;-65
2022/08/02 09:07:41;;;;;;;;;10.00;9.50;;;;;20.97;61.81;101631.59;5032473;28;8945;-65
2022/08/02 09:10:32;;;;;;;;;14.25;13.25;;;;;21.00;62.00;101631.09;5030828;28;8837;-66
2022/08/02 09:13:07;;;;;;;;;13.50;12.25;;;;;21.05;62.04;101633.09;5029478;28;10096;-66
2022/08/02 09:15:58;;;;;;;;;10.75;10.75;;;;;21.12;62.15;101634.63;5028802;28;8865;-65
2022/08/02 09:18:44;;;;;;;;;12.00;11.50;;;;;21.20;62.21;101633.41;5030836;28;8925;-66
2022/08/02 09:21:14;;;;;;;;;7.00;7.00;;;;;21.32;61.95;101627.88;5030498;28;8834;-66
2022/08/02 09:23:43;;;;;;;;;13.50;9.50;;;;;21.41;61.64;101623.66;5023251;28;8931;-66
2022/08/02 09:26:13;;;;;;;;;10.00;10.00;;;;;21.44;61.66;101614.97;5032788;28;8846;-66
2022/08/02 09:28:43;;;;;;;;;7.75;7.75;;;;;21.53;61.79;101616.19;5031880;28;8899;-65
2022/08/02 09:31:13;;;;;;;;;11.00;11.00;;;;;21.54;61.50;101612.38;5030406;28;8854;-66
2022/08/02 09:33:43;;;;;;;;;13.00;10.25;;;;;21.59;61.45;101611.63;5033318;28;8822;-66
2022/08/02 09:36:12;;;;;;;;;9.75;9.75;;;;;21.68;61.22;101619.19;5032765;28;8896;-65
2022/08/02 09:38:50;;;;;;;;;10.50;9.25;;;;;21.74;61.02;101617.34;5032926;28;8837;-66
2022/08/02 09:41:25;;;;;;;;;10.00;10.00;;;;;21.77;61.30;101616.03;5030513;28;8850;-65
2022/08/02 09:43:52;;;;;;;;;11.75;11.00;;;;;21.74;60.92;101631.06;5032137;28;8826;-65
2022/08/02 09:46:41;;;;;;;;;15.75;15.00;;;;;21.73;61.29;101632.97;5028754;28;8837;-65
2022/08/02 09:49:09;;;;;;;;;11.75;11.00;;;;;21.72;61.13;101634.06;5030814;28;8848;-66
2022/08/02 09:51:39;;;;;;;;;9.75;9.00;;;;;21.72;60.87;101633.25;5042815;28;8834;-66
2022/08/02 09:54:08;;;;;;;;;11.75;10.25;;;;;21.71;61.27;101626.94;5024715;28;8814;-66
2022/08/02 09:56:42;;;;;;;;;11.75;9.25;;;;;21.75;61.45;101634.63;5026972;28;8869;-66
2022/08/02 09:59:11;;;;;;;;;8.50;5.50;;;;;21.79;61.35;101638.53;5020421;28;9587;-65
2022/08/02 10:01:38;;;;;;;;;15.00;15.00;;;;;21.80;61.14;101642.97;5031120;28;8826;-64
2022/08/02 10:04:10;;;;;;;;;11.75;8.75;;;;;21.85;61.16;101641.13;5030051;28;8831;-66
2022/08/02 10:06:48;;;;;;;;;8.25;8.25;;;;;21.94;60.97;101639.59;5033407;28;8832;-65
2022/08/02 10:09:15;;;;;;;;;14.00;11.00;;;;;22.01;61.04;101641.34;5028965;28;8853;-66
2022/08/02 10:11:42;;;;;;;;;12.00;12.00;;;;;22.06;61.13;101645.00;5026218;28;8944;-65
2022/08/02 10:14:10;;;;;;;;;11.50;11.00;;;;;22.14;61.03;101636.38;5029289;28;8860;-66
2022/08/02 10:16:39;;;;;;;;;9.50;9.50;;;;;22.23;60.72;101639.50;5028100;28;8834;-66
2022/08/02 10:19:06;;;;;;;;;8.75;7.50;;;;;22.31;60.37;101635.50;5030415;28;8834;-66
2022/08/02 10:21:43;;;;;;;;;10.00;10.00;;;;;22.28;59.32;101636.84;5029945;28;8838;-65
2022/08/02 10:24:19;;;;;;;;;9.25;9.25;;;;;22.27;59.24;101635.19;5031925;28;8857;-66
2022/08/02 10:26:47;;;;;;;;;13.50;13.25;;;;;22.25;59.15;101628.31;5037554;28;8835;-65
2022/08/02 10:29:26;;;;;;;;;9.25;9.25;;;;;22.27;58.96;101629.69;5036357;28;8830;-65
2022/08/02 10:32:15;;;;;;;;;10.00;9.00;;;;;22.34;58.89;101632.25;5030692;28;8864;-66
2022/08/02 10:34:46;;;;;;;;;7.50;7.00;;;;;22.47;58.48;101615.41;5033410;28;8941;-65
2022/08/02 10:37:18;;;;;;;;;9.75;7.25;;;;;22.60;58.27;101616.94;5027050;28;8871;-66
2022/08/02 10:39:45;;;;;;;;;10.00;8.75;;;;;22.68;57.64;101622.81;5030680;28;8900;-66
2022/08/02 10:42:46;;;;;;;;;8.50;8.50;;;;;22.63;55.45;101620.00;5030262;28;9559;-65
2022/08/02 10:45:15;;;;;;;;;6.00;6.00;;;;;22.63;55.16;101617.25;5031156;28;8826;-66
2022/08/02 10:48:03;;;;;;;;;9.00;9.00;;;;;22.62;55.23;101612.03;5038159;28;8847;-65
2022/08/02 10:50:44;;;;;;;;;8.00;7.00;;;;;22.73;55.14;101612.97;5025620;28;8903;-66
2022/08/02 10:53:22;;;;;;;;;5.75;5.75;;;;;22.79;54.32;101603.72;5029903;28;8907;-66
2022/08/02 10:55:49;;;;;;;;;7.50;5.75;;;;;22.85;54.25;101599.94;5029194;28;8853;-66
2022/08/02 10:58:18;;;;;;;;;6.50;6.50;;;;;22.93;54.25;101611.34;5030016;28;8806;-66
2022/08/02 11:00:45;;;;;;;;;6.25;6.25;;;;;23.05;53.78;101608.44;5029192;28;8884;-66
2022/08/02 11:03:34;;;;;;;;;9.00;7.75;;;;;23.25;52.94;101612.47;5031861;28;8830;-66
2022/08/02 11:06:10;;;;;;;;;5.25;4.25;;;;;23.36;52.10;101617.78;5033904;28;8854;-66
2022/08/02 11:09:26;;;;;;;;;7.50;6.50;;;;;23.34;51.39;101602.69;5029553;28;8854;-66
2022/08/02 11:12:06;;;;;;;;;8.75;8.75;;;;;23.35;51.78;101604.31;5026898;28;8878;-66
2022/08/02 11:14:35;;;;;;;;;3.75;3.75;;;;;23.39;51.32;101606.28;5022009;28;8897;-66
2022/08/02 11:17:04;;;;;;;;;4.50;4.50;;;;;23.47;50.56;101615.16;5034742;28;8839;-66
2022/08/02 11:19:31;;;;;;;;;5.00;5.00;;;;;23.60;50.25;101603.72;5026496;28;8949;-66
2022/08/02 11:22:03;;;;;;;;;10.75;8.50;;;;;23.67;50.18;101602.44;5029979;28;8842;-66
2022/08/02 11:24:32;;;;;;;;;3.00;3.00;;;;;23.73;50.00;101596.97;5031193;28;9610;-66
2022/08/02 11:27:01;;;;;;;;;5.75;5.75;;;;;23.68;50.18;101603.25;5029139;28;8959;-66
2022/08/02 11:29:54;;;;;;;;;7.00;7.00;;;;;23.67;49.71;101601.59;5035824;28;8842;-66
2022/08/02 11:32:23;;;;;;;;;4.50;4.50;;;;;23.65;50.16;101606.50;5021767;28;8840;-66
2022/08/02 11:34:57;;;;;;;;;6.00;6.00;;;;;23.65;50.22;101612.84;5029138;28;9609;-65
2022/08/02 11:37:30;;;;;;;;;8.50;7.50;;;;;23.62;50.27;101604.28;5028578;28;8846;-66
2022/08/02 11:39:57;;;;;;;;;5.25;5.25;;;;;23.64;50.54;101602.09;5029997;28;8892;-65
2022/08/02 11:42:31;;;;;;;;;5.50;5.50;;;;;23.64;50.43;101605.66;5030747;28;8841;-65
2022/08/02 11:44:58;;;;;;;;;5.00;5.00;;;;;23.62;50.11;101601.53;5035364;28;8826;-66
2022/08/02 11:47:25;;;;;;;;;4.25;4.25;;;;;23.69;50.58;101602.16;5032413;28;8884;-66
2022/08/02 11:49:51;;;;;;;;;5.50;5.50;;;;;23.75;50.33;101606.63;5033726;28;8846;-67
2022/08/02 11:52:17;;;;;;;;;6.00;6.00;;;;;23.79;50.14;101595.91;5027837;28;9626;-66
2022/08/02 11:54:47;;;;;;;;;4.50;4.50;;;;;23.87;50.38;101601.75;5031161;28;8931;-65